Oxford, NC

4:40 AM EST on December 10, 2016 (GMT -0500)
Henderson-Oxford

Weather History for KHNZ - February, 2014

Change the Weather History Date:

Sunday, February 2, 2014

  Actual Average (KTDF) Record (KTDF)
Temperature  
Mean Temperature 50 °F -  
Max Temperature 63 °F 51 °F 74 °F (1989)
Min Temperature 37 °F 27 °F 7 °F (1980)
Degree Days  
Heating Degree Days 15    
Moisture  
Dew Point 39 °F    
Average Humidity 67    
Maximum Humidity 91    
Minimum Humidity 41    
Precipitation  
Precipitation 0.00 in - - ()
Sea Level Pressure  
Sea Level Pressure 30.04 in    
Wind  
Wind Speed 7 mph (SSW)    
Max Wind Speed 14 mph    
Max Gust Speed 16 mph    
Visibility 10 miles    
Events      
Averages and records for this station are not official NWS values.
T = Trace of Precipitation, MM = Missing Value Source: NWS Daily Summary

Daily Weather History Graph

Daily Weather History Graph

Search for Another Location

Airport or City:

Trip Planner

Search our weather history database for the weather conditions in past years. The results will help you decide how hot, cold, wet, or windy it might be!

Date:

Astronomy

Feb. 02, 2014 Rise Set
Actual Time 7:14 AM EST 5:41 PM EST
Civil Twilight 6:47 AM EST 6:08 PM EST
Nautical Twilight 6:16 AM EST 6:39 PM EST
Astronomical Twilight 5:46 AM EST 7:09 PM EST
Moon 8:46 AM EST (2/2) 9:15 PM EST (2/2)
Length of Visible Light 11h 20m
Length of Day
10h 26m
Waxing Crescent, 11% of the Moon is Illuminated
Feb 2
Waxing Crescent
Feb 6
First Quarter
Feb 14
Full
Feb 22
Last Quarter
Mar 1
New

Hourly Weather History & Observations

Time (EST) Temp. Windchill Dew Point Humidity Pressure Visibility Wind Dir Wind Speed Gust Speed Precip Events Conditions
12:15 AM 46.6 °F - 33.3 °F 60% 30.07 in 10.0 mi SSW 5.8 mph - N/A   Overcast
12:35 AM 46.2 °F 44.1 °F 34.0 °F 62% 30.06 in 10.0 mi SSW 4.6 mph - N/A   Overcast
12:55 AM 45.7 °F 42.0 °F 34.7 °F 65% 30.06 in 10.0 mi SW 6.9 mph - N/A   Overcast
1:15 AM 45.7 °F 42.0 °F 35.6 °F 68% 30.06 in 10.0 mi SSW 6.9 mph - N/A   Overcast
1:35 AM 45.7 °F 42.0 °F 35.6 °F 68% 30.06 in 10.0 mi SW 6.9 mph - N/A   Overcast
1:55 AM 45.7 °F 42.0 °F 35.6 °F 68% 30.05 in 10.0 mi SW 6.9 mph - N/A   Overcast
2:15 AM 45.5 °F 41.8 °F 35.6 °F 68% 30.05 in 10.0 mi SW 6.9 mph - N/A   Overcast
2:35 AM 43.5 °F 40.1 °F 35.1 °F 72% 30.04 in 10.0 mi SSW 5.8 mph - N/A   Mostly Cloudy
2:55 AM 44.1 °F 40.8 °F 35.6 °F 72% 30.04 in 10.0 mi SW 5.8 mph - N/A   Mostly Cloudy
3:15 AM 43.9 °F 40.5 °F 35.6 °F 73% 30.04 in 10.0 mi SSW 5.8 mph - N/A   Overcast
3:35 AM 43.9 °F 39.9 °F 36.0 °F 74% 30.04 in 10.0 mi SSW 6.9 mph - N/A   Overcast
3:55 AM 43.0 °F 37.7 °F 35.8 °F 76% 30.04 in 10.0 mi SSW 9.2 mph - N/A   Overcast
4:15 AM 41.7 °F 37.3 °F 35.1 °F 77% 30.04 in 10.0 mi SSW 6.9 mph - N/A   Mostly Cloudy
4:35 AM 40.5 °F 35.8 °F 34.7 °F 80% 30.04 in 10.0 mi SW 6.9 mph - N/A   Clear
4:55 AM 40.3 °F 35.5 °F 35.1 °F 82% 30.05 in 10.0 mi SSW 6.9 mph - N/A   Scattered Clouds
5:15 AM 40.5 °F 35.8 °F 35.2 °F 82% 30.05 in 10.0 mi SSW 6.9 mph - N/A   Scattered Clouds
5:35 AM 39.9 °F 35.1 °F 35.2 °F 83% 30.05 in 10.0 mi SSW 6.9 mph - N/A   Clear
5:55 AM 37.9 °F 32.7 °F 34.7 °F 88% 30.05 in 10.0 mi SSW 6.9 mph - N/A   Clear
6:15 AM 37.6 °F 31.6 °F 34.9 °F 90% 30.05 in 10.0 mi SSW 8.1 mph - N/A   Clear
6:35 AM 38.8 °F 33.8 °F 36.0 °F 89% 30.04 in 10.0 mi SSW 6.9 mph - N/A   Clear
6:55 AM 38.3 °F 33.2 °F 35.6 °F 90% 30.04 in 10.0 mi SSW 6.9 mph - N/A   Clear
7:15 AM 38.3 °F 33.2 °F 35.8 °F 91% 30.04 in 7.0 mi SSW 6.9 mph - N/A   Clear
7:35 AM 39.4 °F 33.8 °F 37.0 °F 91% 30.04 in 7.0 mi SSW 8.1 mph - N/A   Clear
7:55 AM 40.3 °F 35.5 °F 37.8 °F 91% 30.04 in 5.0 mi SSW 6.9 mph - N/A   Clear
8:15 AM 40.6 °F 35.4 °F 38.1 °F 91% 30.06 in 5.0 mi SW 8.1 mph - N/A   Clear
8:35 AM 41.5 °F 36.4 °F 39.0 °F 91% 30.06 in 5.0 mi SW 8.1 mph - N/A   Clear
8:55 AM 43.7 °F 38.1 °F 40.3 °F 88% 30.06 in 7.0 mi SSW 10.4 mph - N/A   Clear
9:15 AM 46.2 °F 40.5 °F 40.8 °F 81% 30.07 in 7.0 mi SW 12.7 mph - N/A   Clear
9:35 AM 47.7 °F - 40.3 °F 76% 30.07 in 10.0 mi SW 12.7 mph - N/A   Clear
9:55 AM 48.6 °F - 40.3 °F 73% 30.07 in 10.0 mi SSW 11.5 mph - N/A   Clear
10:15 AM 50.7 °F - 40.8 °F 69% 30.07 in 10.0 mi SW 11.5 mph - N/A   Clear
10:35 AM 50.9 °F - 40.3 °F 67% 30.07 in 10.0 mi SW 13.8 mph - N/A   Clear
10:55 AM 52.0 °F - 40.3 °F 64% 30.08 in 10.0 mi SW 12.7 mph 16.1 mph N/A   Clear
11:15 AM 53.8 °F - 40.5 °F 61% 30.08 in 10.0 mi SW 11.5 mph - N/A   Clear
11:35 AM 55.0 °F - 40.3 °F 58% 30.07 in 10.0 mi SW 8.1 mph - N/A   Clear
11:55 AM 56.3 °F - 40.3 °F 55% 30.07 in 10.0 mi WSW 8.1 mph - N/A   Clear
12:15 PM 57.4 °F - 40.1 °F 53% 30.05 in 10.0 mi SW 10.4 mph - N/A   Clear
12:35 PM 59.0 °F - 39.7 °F 49% 30.05 in 10.0 mi SW 9.2 mph - N/A   Clear
12:55 PM 60.8 °F - 39.0 °F 45% 30.04 in 10.0 mi WSW 8.1 mph - N/A   Clear
1:15 PM 61.9 °F - 38.8 °F 43% 30.03 in 10.0 mi SW 4.6 mph - N/A   Clear
1:35 PM 62.8 °F - 38.5 °F 41% 30.02 in 10.0 mi SW 8.1 mph - N/A   Clear
1:55 PM 62.4 °F - 38.5 °F 41% 30.02 in 10.0 mi SW 11.5 mph - N/A   Clear
2:15 PM 62.8 °F - 39.2 °F 42% 30.02 in 10.0 mi SW 10.4 mph - N/A   Clear
2:35 PM 63.5 °F - 39.9 °F 42% 30.01 in 10.0 mi SW 9.2 mph - N/A   Clear
2:55 PM 63.7 °F - 40.1 °F 42% 30.02 in 10.0 mi SW 6.9 mph - N/A   Clear
3:15 PM 63.0 °F - 40.6 °F 44% 30.01 in 10.0 mi South 6.9 mph - N/A   Clear
3:35 PM 63.0 °F - 40.8 °F 44% 30.02 in 10.0 mi South 8.1 mph - N/A   Clear
3:55 PM 63.0 °F - 40.3 °F 43% 30.02 in 10.0 mi South 9.2 mph - N/A   Clear
4:15 PM 63.1 °F - 40.3 °F 43% 30.02 in 10.0 mi SW 9.2 mph - N/A   Clear
4:35 PM 62.2 °F - 40.1 °F 44% 30.02 in 10.0 mi SW 8.1 mph - N/A   Clear
4:55 PM 61.2 °F - 40.1 °F 46% 30.03 in 10.0 mi SW 6.9 mph - N/A   Clear
5:15 PM 59.5 °F - 41.0 °F 50% 30.03 in 10.0 mi SW 5.8 mph - N/A   Clear
5:35 PM 58.8 °F - 40.5 °F 51% 30.03 in 10.0 mi South 6.9 mph - N/A   Clear
5:55 PM 58.1 °F - 41.2 °F 53% 30.03 in 10.0 mi South 6.9 mph - N/A   Clear
6:15 PM 56.3 °F - 41.0 °F 57% 30.03 in 10.0 mi South 5.8 mph - N/A   Clear
6:35 PM 55.6 °F - 41.2 °F 58% 30.03 in 10.0 mi South 4.6 mph - N/A   Clear
6:55 PM 54.3 °F - 41.2 °F 61% 30.04 in 10.0 mi South 5.8 mph - N/A   Clear
7:15 PM 53.8 °F - 41.2 °F 62% 30.02 in 10.0 mi South 6.9 mph - N/A   Clear
7:35 PM 52.5 °F - 41.2 °F 65% 30.04 in 10.0 mi SSW 5.8 mph - N/A   Clear
7:55 PM 51.4 °F - 41.5 °F 69% 30.04 in 10.0 mi SSW 6.9 mph - N/A   Clear
8:15 PM 52.5 °F - 41.9 °F 67% 30.04 in 10.0 mi SSW 5.8 mph - N/A   Clear
8:35 PM 52.3 °F - 41.9 °F 68% 30.02 in 10.0 mi South 5.8 mph - N/A   Clear
8:55 PM 53.1 °F - 42.8 °F 68% 30.02 in 10.0 mi South 8.1 mph - N/A   Clear
9:15 PM 52.2 °F - 43.0 °F 71% 30.02 in 10.0 mi SSW 6.9 mph - N/A   Clear
9:35 PM 50.0 °F - 42.4 °F 75% 30.02 in 10.0 mi South 4.6 mph - N/A   Clear
9:55 PM 50.0 °F - 43.7 °F 79% 30.03 in 10.0 mi SW 6.9 mph - N/A   Clear
10:15 PM 51.8 °F - 44.8 °F 77% 30.02 in 10.0 mi South 8.1 mph - N/A   Clear
10:35 PM 51.8 °F - 44.8 °F 77% 30.02 in 10.0 mi South 6.9 mph - N/A   Clear
10:55 PM 51.4 °F - 45.1 °F 79% 30.02 in 10.0 mi South 8.1 mph - N/A   Clear
11:15 PM 51.8 °F - 45.9 °F 80% 30.03 in 10.0 mi SW 10.4 mph - N/A   Mostly Cloudy
11:35 PM 51.4 °F - 46.0 °F 82% 30.03 in 10.0 mi SW 10.4 mph - N/A   Overcast
11:55 PM 51.8 °F - 46.4 °F 82% 30.01 in 10.0 mi South 8.1 mph - N/A   Overcast